sensor_id;sensor_type;location;lat;lon;timestamp;P1;durP1;ratioP1;P2;durP2;ratioP2
51499;SDS011;39101;53.478;6.158;2023-11-21T00:00:44;11.65;;;3.22;;
51499;SDS011;39101;53.478;6.158;2023-11-21T00:03:11;19.08;;;3.40;;
51499;SDS011;39101;53.478;6.158;2023-11-21T00:05:40;16.23;;;4.63;;
51499;SDS011;39101;53.478;6.158;2023-11-21T00:08:06;23.65;;;4.45;;
51499;SDS011;39101;53.478;6.158;2023-11-21T00:10:33;15.13;;;4.30;;
51499;SDS011;39101;53.478;6.158;2023-11-21T00:12:59;18.77;;;4.73;;
51499;SDS011;39101;53.478;6.158;2023-11-21T00:15:27;21.27;;;7.60;;
51499;SDS011;39101;53.478;6.158;2023-11-21T00:17:53;16.52;;;4.57;;
51499;SDS011;39101;53.478;6.158;2023-11-21T00:20:19;16.40;;;4.72;;
51499;SDS011;39101;53.478;6.158;2023-11-21T00:22:45;19.42;;;4.85;;
51499;SDS011;39101;53.478;6.158;2023-11-21T00:25:11;22.23;;;4.73;;
51499;SDS011;39101;53.478;6.158;2023-11-21T00:27:40;11.00;;;2.80;;
51499;SDS011;39101;53.478;6.158;2023-11-21T00:30:06;12.30;;;2.38;;
51499;SDS011;39101;53.478;6.158;2023-11-21T00:32:33;6.70;;;1.55;;
51499;SDS011;39101;53.478;6.158;2023-11-21T00:35:00;9.50;;;1.45;;
51499;SDS011;39101;53.478;6.158;2023-11-21T00:37:26;6.25;;;1.20;;
51499;SDS011;39101;53.478;6.158;2023-11-21T00:39:52;4.53;;;1.00;;
51499;SDS011;39101;53.478;6.158;2023-11-21T00:42:18;6.25;;;1.17;;
51499;SDS011;39101;53.478;6.158;2023-11-21T00:44:43;3.92;;;0.95;;
51499;SDS011;39101;53.478;6.158;2023-11-21T00:47:09;9.10;;;1.27;;
51499;SDS011;39101;53.478;6.158;2023-11-21T00:49:35;7.82;;;1.30;;
51499;SDS011;39101;53.478;6.158;2023-11-21T00:52:00;4.13;;;1.43;;
51499;SDS011;39101;53.478;6.158;2023-11-21T00:54:27;6.28;;;1.05;;
51499;SDS011;39101;53.478;6.158;2023-11-21T00:56:53;4.90;;;1.17;;
51499;SDS011;39101;53.478;6.158;2023-11-21T00:59:18;10.02;;;2.75;;
51499;SDS011;39101;53.478;6.158;2023-11-21T01:01:44;4.05;;;1.10;;
51499;SDS011;39101;53.478;6.158;2023-11-21T01:04:09;4.22;;;0.90;;
51499;SDS011;39101;53.478;6.158;2023-11-21T01:06:35;4.43;;;0.90;;
51499;SDS011;39101;53.478;6.158;2023-11-21T01:09:01;7.53;;;0.77;;
51499;SDS011;39101;53.478;6.158;2023-11-21T01:11:32;6.30;;;1.13;;
51499;SDS011;39101;53.478;6.158;2023-11-21T01:14:01;6.97;;;1.00;;
51499;SDS011;39101;53.478;6.158;2023-11-21T01:16:28;6.28;;;1.08;;
51499;SDS011;39101;53.478;6.158;2023-11-21T01:18:54;9.45;;;1.30;;
51499;SDS011;39101;53.478;6.158;2023-11-21T01:21:19;6.35;;;1.10;;
51499;SDS011;39101;53.478;6.158;2023-11-21T01:23:45;4.68;;;1.23;;
51499;SDS011;39101;53.478;6.158;2023-11-21T01:26:12;8.63;;;1.48;;
51499;SDS011;39101;53.478;6.158;2023-11-21T01:28:38;9.70;;;1.20;;
51499;SDS011;39101;53.478;6.158;2023-11-21T01:31:04;5.53;;;1.10;;
51499;SDS011;39101;53.478;6.158;2023-11-21T01:33:29;5.25;;;1.08;;
51499;SDS011;39101;53.478;6.158;2023-11-21T01:35:55;7.68;;;1.15;;
51499;SDS011;39101;53.478;6.158;2023-11-21T01:38:21;14.30;;;1.67;;
51499;SDS011;39101;53.478;6.158;2023-11-21T01:40:47;13.97;;;1.50;;
51499;SDS011;39101;53.478;6.158;2023-11-21T01:43:13;8.38;;;1.92;;
51499;SDS011;39101;53.478;6.158;2023-11-21T01:45:38;11.27;;;1.73;;
51499;SDS011;39101;53.478;6.158;2023-11-21T01:48:04;9.82;;;1.48;;
51499;SDS011;39101;53.478;6.158;2023-11-21T01:50:32;11.57;;;1.85;;
51499;SDS011;39101;53.478;6.158;2023-11-21T01:52:58;12.07;;;2.00;;
51499;SDS011;39101;53.478;6.158;2023-11-21T01:55:26;8.48;;;1.52;;
51499;SDS011;39101;53.478;6.158;2023-11-21T01:57:53;17.00;;;1.92;;
51499;SDS011;39101;53.478;6.158;2023-11-21T02:00:20;16.05;;;2.05;;
51499;SDS011;39101;53.478;6.158;2023-11-21T02:02:46;8.25;;;1.80;;
51499;SDS011;39101;53.478;6.158;2023-11-21T02:05:14;11.07;;;3.72;;
51499;SDS011;39101;53.478;6.158;2023-11-21T02:07:42;15.98;;;2.35;;
51499;SDS011;39101;53.478;6.158;2023-11-21T02:10:08;14.40;;;2.40;;
51499;SDS011;39101;53.478;6.158;2023-11-21T02:12:34;19.48;;;2.42;;
51499;SDS011;39101;53.478;6.158;2023-11-21T02:15:03;17.05;;;2.40;;
51499;SDS011;39101;53.478;6.158;2023-11-21T02:17:34;16.20;;;2.78;;
51499;SDS011;39101;53.478;6.158;2023-11-21T02:20:00;14.75;;;2.30;;
51499;SDS011;39101;53.478;6.158;2023-11-21T02:22:28;13.93;;;2.45;;
51499;SDS011;39101;53.478;6.158;2023-11-21T02:24:57;20.55;;;2.67;;
51499;SDS011;39101;53.478;6.158;2023-11-21T02:27:23;19.60;;;2.90;;
51499;SDS011;39101;53.478;6.158;2023-11-21T02:29:49;16.85;;;4.00;;
51499;SDS011;39101;53.478;6.158;2023-11-21T02:32:15;18.48;;;3.45;;
51499;SDS011;39101;53.478;6.158;2023-11-21T02:34:44;15.90;;;3.20;;
51499;SDS011;39101;53.478;6.158;2023-11-21T02:37:09;29.20;;;3.67;;
51499;SDS011;39101;53.478;6.158;2023-11-21T02:39:35;21.53;;;3.97;;
51499;SDS011;39101;53.478;6.158;2023-11-21T02:42:01;21.00;;;3.78;;
51499;SDS011;39101;53.478;6.158;2023-11-21T02:44:26;24.98;;;3.75;;
51499;SDS011;39101;53.478;6.158;2023-11-21T02:46:52;19.80;;;4.00;;
51499;SDS011;39101;53.478;6.158;2023-11-21T02:49:17;14.02;;;2.88;;
51499;SDS011;39101;53.478;6.158;2023-11-21T02:51:43;17.75;;;3.47;;
51499;SDS011;39101;53.478;6.158;2023-11-21T02:54:09;18.33;;;3.03;;
51499;SDS011;39101;53.478;6.158;2023-11-21T02:56:35;15.13;;;2.60;;
51499;SDS011;39101;53.478;6.158;2023-11-21T02:59:00;14.73;;;3.53;;
51499;SDS011;39101;53.478;6.158;2023-11-21T03:01:26;16.27;;;3.53;;
51499;SDS011;39101;53.478;6.158;2023-11-21T03:03:53;25.23;;;4.90;;
51499;SDS011;39101;53.478;6.158;2023-11-21T03:06:20;27.20;;;4.57;;
51499;SDS011;39101;53.478;6.158;2023-11-21T03:08:46;17.98;;;6.18;;
51499;SDS011;39101;53.478;6.158;2023-11-21T03:11:12;28.88;;;7.07;;
51499;SDS011;39101;53.478;6.158;2023-11-21T03:13:39;28.77;;;7.50;;
51499;SDS011;39101;53.478;6.158;2023-11-21T03:16:07;29.50;;;7.22;;
51499;SDS011;39101;53.478;6.158;2023-11-21T03:18:37;32.43;;;7.40;;
51499;SDS011;39101;53.478;6.158;2023-11-21T03:21:03;30.20;;;7.13;;
51499;SDS011;39101;53.478;6.158;2023-11-21T03:23:30;32.27;;;8.93;;
51499;SDS011;39101;53.478;6.158;2023-11-21T03:25:56;40.97;;;7.78;;
51499;SDS011;39101;53.478;6.158;2023-11-21T03:28:21;36.40;;;7.50;;
51499;SDS011;39101;53.478;6.158;2023-11-21T03:30:48;21.00;;;6.27;;
51499;SDS011;39101;53.478;6.158;2023-11-21T03:33:14;34.17;;;6.97;;
51499;SDS011;39101;53.478;6.158;2023-11-21T03:35:40;31.73;;;7.57;;
51499;SDS011;39101;53.478;6.158;2023-11-21T03:38:07;42.70;;;7.13;;
51499;SDS011;39101;53.478;6.158;2023-11-21T03:40:32;27.23;;;6.40;;
51499;SDS011;39101;53.478;6.158;2023-11-21T03:42:58;23.03;;;5.10;;
51499;SDS011;39101;53.478;6.158;2023-11-21T03:45:24;29.30;;;8.10;;
51499;SDS011;39101;53.478;6.158;2023-11-21T03:47:49;30.30;;;10.23;;
51499;SDS011;39101;53.478;6.158;2023-11-21T03:50:15;37.07;;;11.67;;
51499;SDS011;39101;53.478;6.158;2023-11-21T03:52:41;26.27;;;9.43;;
51499;SDS011;39101;53.478;6.158;2023-11-21T03:55:07;23.83;;;9.63;;
51499;SDS011;39101;53.478;6.158;2023-11-21T03:57:33;27.47;;;11.37;;
51499;SDS011;39101;53.478;6.158;2023-11-21T03:59:59;30.40;;;10.70;;
51499;SDS011;39101;53.478;6.158;2023-11-21T04:02:25;28.80;;;10.43;;
51499;SDS011;39101;53.478;6.158;2023-11-21T04:04:51;33.63;;;11.60;;
51499;SDS011;39101;53.478;6.158;2023-11-21T04:07:17;26.30;;;10.03;;
51499;SDS011;39101;53.478;6.158;2023-11-21T04:09:42;26.70;;;10.23;;
51499;SDS011;39101;53.478;6.158;2023-11-21T04:12:08;27.10;;;9.17;;
51499;SDS011;39101;53.478;6.158;2023-11-21T04:14:34;29.70;;;9.80;;
51499;SDS011;39101;53.478;6.158;2023-11-21T04:17:00;30.67;;;11.27;;
51499;SDS011;39101;53.478;6.158;2023-11-21T04:19:26;28.57;;;10.07;;
51499;SDS011;39101;53.478;6.158;2023-11-21T04:21:52;31.63;;;11.40;;
51499;SDS011;39101;53.478;6.158;2023-11-21T04:24:17;25.23;;;10.40;;
51499;SDS011;39101;53.478;6.158;2023-11-21T04:26:43;32.53;;;10.43;;
51499;SDS011;39101;53.478;6.158;2023-11-21T04:29:09;28.27;;;11.70;;
51499;SDS011;39101;53.478;6.158;2023-11-21T04:31:35;27.70;;;10.67;;
51499;SDS011;39101;53.478;6.158;2023-11-21T04:34:00;31.90;;;11.90;;
51499;SDS011;39101;53.478;6.158;2023-11-21T04:36:26;32.00;;;11.27;;
51499;SDS011;39101;53.478;6.158;2023-11-21T04:38:52;27.23;;;11.73;;
51499;SDS011;39101;53.478;6.158;2023-11-21T04:41:17;21.73;;;10.00;;
51499;SDS011;39101;53.478;6.158;2023-11-21T04:43:43;26.33;;;10.63;;
51499;SDS011;39101;53.478;6.158;2023-11-21T04:46:08;23.40;;;10.13;;
51499;SDS011;39101;53.478;6.158;2023-11-21T04:48:34;25.50;;;12.10;;
51499;SDS011;39101;53.478;6.158;2023-11-21T04:51:00;28.20;;;10.10;;
51499;SDS011;39101;53.478;6.158;2023-11-21T04:53:25;33.70;;;12.57;;
51499;SDS011;39101;53.478;6.158;2023-11-21T04:55:51;35.07;;;12.03;;
51499;SDS011;39101;53.478;6.158;2023-11-21T04:58:17;29.77;;;10.70;;
51499;SDS011;39101;53.478;6.158;2023-11-21T05:00:44;27.77;;;9.63;;
51499;SDS011;39101;53.478;6.158;2023-11-21T05:03:10;32.27;;;11.73;;
51499;SDS011;39101;53.478;6.158;2023-11-21T05:05:35;33.63;;;13.00;;
51499;SDS011;39101;53.478;6.158;2023-11-21T05:08:01;31.77;;;11.70;;
51499;SDS011;39101;53.478;6.158;2023-11-21T05:10:27;42.20;;;14.40;;
51499;SDS011;39101;53.478;6.158;2023-11-21T05:12:54;37.60;;;13.50;;
51499;SDS011;39101;53.478;6.158;2023-11-21T05:15:20;33.80;;;12.50;;
51499;SDS011;39101;53.478;6.158;2023-11-21T05:17:46;35.47;;;13.03;;
51499;SDS011;39101;53.478;6.158;2023-11-21T05:20:15;43.50;;;14.83;;
51499;SDS011;39101;53.478;6.158;2023-11-21T05:22:48;37.27;;;12.83;;
51499;SDS011;39101;53.478;6.158;2023-11-21T05:25:15;46.23;;;14.43;;
51499;SDS011;39101;53.478;6.158;2023-11-21T05:27:43;34.00;;;13.13;;
51499;SDS011;39101;53.478;6.158;2023-11-21T05:30:10;40.00;;;14.40;;
51499;SDS011;39101;53.478;6.158;2023-11-21T05:32:37;35.77;;;13.93;;
51499;SDS011;39101;53.478;6.158;2023-11-21T05:35:04;30.70;;;11.63;;
51499;SDS011;39101;53.478;6.158;2023-11-21T05:37:34;37.43;;;13.47;;
51499;SDS011;39101;53.478;6.158;2023-11-21T05:40:01;28.60;;;11.53;;
51499;SDS011;39101;53.478;6.158;2023-11-21T05:42:31;30.98;;;13.18;;
51499;SDS011;39101;53.478;6.158;2023-11-21T05:44:57;29.30;;;11.93;;
51499;SDS011;39101;53.478;6.158;2023-11-21T05:47:41;28.57;;;12.13;;
51499;SDS011;39101;53.478;6.158;2023-11-21T05:50:11;25.33;;;10.47;;
51499;SDS011;39101;53.478;6.158;2023-11-21T05:52:43;31.10;;;12.53;;
51499;SDS011;39101;53.478;6.158;2023-11-21T05:55:10;26.00;;;12.67;;
51499;SDS011;39101;53.478;6.158;2023-11-21T05:57:36;29.73;;;12.20;;
51499;SDS011;39101;53.478;6.158;2023-11-21T06:00:07;27.93;;;12.03;;
51499;SDS011;39101;53.478;6.158;2023-11-21T06:02:40;31.67;;;13.47;;
51499;SDS011;39101;53.478;6.158;2023-11-21T06:05:06;35.87;;;14.50;;
51499;SDS011;39101;53.478;6.158;2023-11-21T06:07:32;33.50;;;14.70;;
51499;SDS011;39101;53.478;6.158;2023-11-21T06:09:58;34.43;;;13.93;;
51499;SDS011;39101;53.478;6.158;2023-11-21T06:12:23;31.87;;;14.67;;
51499;SDS011;39101;53.478;6.158;2023-11-21T06:14:50;34.63;;;15.63;;
51499;SDS011;39101;53.478;6.158;2023-11-21T06:17:16;30.10;;;14.17;;
51499;SDS011;39101;53.478;6.158;2023-11-21T06:19:42;32.43;;;14.37;;
51499;SDS011;39101;53.478;6.158;2023-11-21T06:22:10;32.80;;;13.47;;
51499;SDS011;39101;53.478;6.158;2023-11-21T06:24:36;35.43;;;14.40;;
51499;SDS011;39101;53.478;6.158;2023-11-21T06:27:03;25.83;;;12.37;;
51499;SDS011;39101;53.478;6.158;2023-11-21T06:29:30;36.70;;;13.43;;
51499;SDS011;39101;53.478;6.158;2023-11-21T06:31:57;28.07;;;11.73;;
51499;SDS011;39101;53.478;6.158;2023-11-21T06:34:23;28.23;;;12.57;;
51499;SDS011;39101;53.478;6.158;2023-11-21T06:36:49;28.00;;;11.77;;
51499;SDS011;39101;53.478;6.158;2023-11-21T06:39:14;29.83;;;11.67;;
51499;SDS011;39101;53.478;6.158;2023-11-21T06:41:42;31.83;;;11.43;;
51499;SDS011;39101;53.478;6.158;2023-11-21T06:44:08;29.93;;;11.37;;
51499;SDS011;39101;53.478;6.158;2023-11-21T06:46:34;22.50;;;10.07;;
51499;SDS011;39101;53.478;6.158;2023-11-21T06:48:59;28.97;;;10.97;;
51499;SDS011;39101;53.478;6.158;2023-11-21T06:51:25;29.93;;;10.80;;
51499;SDS011;39101;53.478;6.158;2023-11-21T06:53:51;31.80;;;10.77;;
51499;SDS011;39101;53.478;6.158;2023-11-21T06:56:16;27.53;;;10.50;;
51499;SDS011;39101;53.478;6.158;2023-11-21T06:58:43;24.60;;;11.87;;
51499;SDS011;39101;53.478;6.158;2023-11-21T07:01:10;25.03;;;11.47;;
51499;SDS011;39101;53.478;6.158;2023-11-21T07:03:36;26.97;;;10.80;;
51499;SDS011;39101;53.478;6.158;2023-11-21T07:06:02;22.67;;;11.33;;
51499;SDS011;39101;53.478;6.158;2023-11-21T07:08:29;20.97;;;10.87;;
51499;SDS011;39101;53.478;6.158;2023-11-21T07:10:54;20.07;;;11.40;;
51499;SDS011;39101;53.478;6.158;2023-11-21T07:13:20;21.33;;;9.63;;
51499;SDS011;39101;53.478;6.158;2023-11-21T07:15:46;31.70;;;11.00;;
51499;SDS011;39101;53.478;6.158;2023-11-21T07:18:13;22.03;;;10.07;;
51499;SDS011;39101;53.478;6.158;2023-11-21T07:20:39;24.03;;;9.43;;
51499;SDS011;39101;53.478;6.158;2023-11-21T07:23:04;25.47;;;11.37;;
51499;SDS011;39101;53.478;6.158;2023-11-21T07:25:31;23.87;;;10.30;;
51499;SDS011;39101;53.478;6.158;2023-11-21T07:27:57;21.37;;;10.23;;
51499;SDS011;39101;53.478;6.158;2023-11-21T07:30:23;22.20;;;9.53;;
51499;SDS011;39101;53.478;6.158;2023-11-21T07:32:48;23.30;;;10.20;;
51499;SDS011;39101;53.478;6.158;2023-11-21T07:35:14;21.50;;;8.00;;
51499;SDS011;39101;53.478;6.158;2023-11-21T07:37:40;20.57;;;9.00;;
51499;SDS011;39101;53.478;6.158;2023-11-21T07:40:06;19.17;;;9.90;;
51499;SDS011;39101;53.478;6.158;2023-11-21T07:42:33;23.17;;;11.17;;
51499;SDS011;39101;53.478;6.158;2023-11-21T07:44:59;22.73;;;11.07;;
51499;SDS011;39101;53.478;6.158;2023-11-21T07:47:25;24.57;;;11.03;;
51499;SDS011;39101;53.478;6.158;2023-11-21T07:49:52;24.17;;;11.33;;
51499;SDS011;39101;53.478;6.158;2023-11-21T07:52:20;23.50;;;11.50;;
51499;SDS011;39101;53.478;6.158;2023-11-21T07:54:47;21.07;;;11.23;;
51499;SDS011;39101;53.478;6.158;2023-11-21T07:57:12;25.97;;;13.80;;
51499;SDS011;39101;53.478;6.158;2023-11-21T07:59:42;28.20;;;13.03;;
51499;SDS011;39101;53.478;6.158;2023-11-21T08:02:07;32.63;;;14.30;;
51499;SDS011;39101;53.478;6.158;2023-11-21T08:04:33;28.33;;;14.47;;
51499;SDS011;39101;53.478;6.158;2023-11-21T08:07:00;30.47;;;15.00;;
51499;SDS011;39101;53.478;6.158;2023-11-21T08:09:27;26.73;;;14.33;;
51499;SDS011;39101;53.478;6.158;2023-11-21T08:11:52;29.30;;;15.10;;
51499;SDS011;39101;53.478;6.158;2023-11-21T08:14:18;23.47;;;13.43;;
51499;SDS011;39101;53.478;6.158;2023-11-21T08:16:45;24.03;;;12.23;;
51499;SDS011;39101;53.478;6.158;2023-11-21T08:19:11;31.17;;;13.47;;
51499;SDS011;39101;53.478;6.158;2023-11-21T08:21:36;23.73;;;12.13;;
51499;SDS011;39101;53.478;6.158;2023-11-21T08:24:06;26.67;;;13.23;;
51499;SDS011;39101;53.478;6.158;2023-11-21T08:26:35;25.43;;;12.30;;
51499;SDS011;39101;53.478;6.158;2023-11-21T08:29:04;23.97;;;13.07;;
51499;SDS011;39101;53.478;6.158;2023-11-21T08:31:32;25.50;;;13.97;;
51499;SDS011;39101;53.478;6.158;2023-11-21T08:33:58;24.73;;;13.90;;
51499;SDS011;39101;53.478;6.158;2023-11-21T08:36:23;25.10;;;13.63;;
51499;SDS011;39101;53.478;6.158;2023-11-21T08:38:50;27.87;;;13.77;;
51499;SDS011;39101;53.478;6.158;2023-11-21T08:41:19;22.83;;;13.70;;
51499;SDS011;39101;53.478;6.158;2023-11-21T08:43:49;19.80;;;12.67;;
51499;SDS011;39101;53.478;6.158;2023-11-21T08:46:15;19.40;;;11.27;;
51499;SDS011;39101;53.478;6.158;2023-11-21T08:48:44;21.70;;;11.37;;
51499;SDS011;39101;53.478;6.158;2023-11-21T08:51:10;20.80;;;11.70;;
51499;SDS011;39101;53.478;6.158;2023-11-21T08:53:39;20.97;;;11.13;;
51499;SDS011;39101;53.478;6.158;2023-11-21T08:56:05;20.47;;;11.97;;
51499;SDS011;39101;53.478;6.158;2023-11-21T08:58:31;26.10;;;12.07;;
51499;SDS011;39101;53.478;6.158;2023-11-21T09:00:57;19.80;;;11.00;;
51499;SDS011;39101;53.478;6.158;2023-11-21T09:03:23;15.37;;;9.27;;
51499;SDS011;39101;53.478;6.158;2023-11-21T09:05:49;20.73;;;9.77;;
51499;SDS011;39101;53.478;6.158;2023-11-21T09:08:15;14.30;;;9.40;;
51499;SDS011;39101;53.478;6.158;2023-11-21T09:10:42;18.30;;;9.87;;
51499;SDS011;39101;53.478;6.158;2023-11-21T09:13:08;18.10;;;10.13;;
51499;SDS011;39101;53.478;6.158;2023-11-21T09:15:34;15.90;;;9.30;;
51499;SDS011;39101;53.478;6.158;2023-11-21T09:18:00;13.87;;;8.70;;
51499;SDS011;39101;53.478;6.158;2023-11-21T09:20:26;15.20;;;9.17;;
51499;SDS011;39101;53.478;6.158;2023-11-21T09:22:53;16.57;;;8.37;;
51499;SDS011;39101;53.478;6.158;2023-11-21T09:25:20;17.13;;;8.50;;
51499;SDS011;39101;53.478;6.158;2023-11-21T09:27:46;15.57;;;9.73;;
51499;SDS011;39101;53.478;6.158;2023-11-21T09:30:12;15.03;;;9.07;;
51499;SDS011;39101;53.478;6.158;2023-11-21T09:32:39;14.77;;;8.53;;
51499;SDS011;39101;53.478;6.158;2023-11-21T09:35:05;14.93;;;8.63;;
51499;SDS011;39101;53.478;6.158;2023-11-21T09:37:33;16.93;;;9.47;;
51499;SDS011;39101;53.478;6.158;2023-11-21T09:39:59;14.93;;;9.70;;
51499;SDS011;39101;53.478;6.158;2023-11-21T09:43:08;15.90;;;8.67;;
51499;SDS011;39101;53.478;6.158;2023-11-21T09:45:32;12.13;;;7.80;;
51499;SDS011;39101;53.478;6.158;2023-11-21T09:48:00;10.47;;;6.37;;
51499;SDS011;39101;53.478;6.158;2023-11-21T09:50:26;9.83;;;5.53;;
51499;SDS011;39101;53.478;6.158;2023-11-21T09:52:57;9.70;;;5.73;;
51499;SDS011;39101;53.478;6.158;2023-11-21T09:58:09;9.47;;;5.93;;
51499;SDS011;39101;53.478;6.158;2023-11-21T10:00:38;13.90;;;7.13;;
51499;SDS011;39101;53.478;6.158;2023-11-21T10:03:12;9.73;;;6.37;;
51499;SDS011;39101;53.478;6.158;2023-11-21T10:05:39;11.20;;;6.07;;
51499;SDS011;39101;53.478;6.158;2023-11-21T10:08:10;8.63;;;6.00;;
51499;SDS011;39101;53.478;6.158;2023-11-21T10:10:42;8.97;;;5.37;;
51499;SDS011;39101;53.478;6.158;2023-11-21T10:13:11;9.10;;;5.77;;
51499;SDS011;39101;53.478;6.158;2023-11-21T10:15:38;9.47;;;5.97;;
51499;SDS011;39101;53.478;6.158;2023-11-21T10:18:09;8.07;;;6.10;;
51499;SDS011;39101;53.478;6.158;2023-11-21T10:20:35;13.83;;;6.97;;
51499;SDS011;39101;53.478;6.158;2023-11-21T10:23:03;10.13;;;6.13;;
51499;SDS011;39101;53.478;6.158;2023-11-21T10:25:32;10.13;;;5.93;;
51499;SDS011;39101;53.478;6.158;2023-11-21T10:27:58;12.20;;;6.40;;
51499;SDS011;39101;53.478;6.158;2023-11-21T10:30:36;10.17;;;6.53;;
51499;SDS011;39101;53.478;6.158;2023-11-21T10:33:06;8.97;;;6.17;;
51499;SDS011;39101;53.478;6.158;2023-11-21T10:38:19;12.90;;;6.17;;
51499;SDS011;39101;53.478;6.158;2023-11-21T10:43:15;8.00;;;5.73;;
51499;SDS011;39101;53.478;6.158;2023-11-21T10:45:42;8.50;;;5.63;;
51499;SDS011;39101;53.478;6.158;2023-11-21T10:48:09;10.30;;;5.80;;
51499;SDS011;39101;53.478;6.158;2023-11-21T10:50:40;9.10;;;5.50;;
51499;SDS011;39101;53.478;6.158;2023-11-21T10:53:06;10.23;;;6.77;;
51499;SDS011;39101;53.478;6.158;2023-11-21T10:55:33;9.10;;;6.10;;
51499;SDS011;39101;53.478;6.158;2023-11-21T10:58:00;14.60;;;7.33;;
51499;SDS011;39101;53.478;6.158;2023-11-21T11:00:27;8.87;;;6.00;;
51499;SDS011;39101;53.478;6.158;2023-11-21T11:02:54;8.53;;;5.23;;
51499;SDS011;39101;53.478;6.158;2023-11-21T11:05:21;9.43;;;5.47;;
51499;SDS011;39101;53.478;6.158;2023-11-21T11:10:24;9.63;;;6.27;;
51499;SDS011;39101;53.478;6.158;2023-11-21T11:12:52;8.50;;;6.57;;
51499;SDS011;39101;53.478;6.158;2023-11-21T11:17:48;8.73;;;5.73;;
51499;SDS011;39101;53.478;6.158;2023-11-21T11:20:14;11.03;;;6.17;;
51499;SDS011;39101;53.478;6.158;2023-11-21T11:25:47;7.90;;;5.40;;
51499;SDS011;39101;53.478;6.158;2023-11-21T11:31:19;10.47;;;5.73;;
51499;SDS011;39101;53.478;6.158;2023-11-21T11:36:59;8.50;;;5.07;;
51499;SDS011;39101;53.478;6.158;2023-11-21T11:39:28;8.77;;;5.53;;
51499;SDS011;39101;53.478;6.158;2023-11-21T11:41:56;7.97;;;4.83;;
51499;SDS011;39101;53.478;6.158;2023-11-21T11:47:21;9.00;;;5.77;;
51499;SDS011;39101;53.478;6.158;2023-11-21T11:49:56;9.97;;;5.87;;
51499;SDS011;39101;53.478;6.158;2023-11-21T11:52:32;11.23;;;5.80;;
51499;SDS011;39101;53.478;6.158;2023-11-21T11:54:59;10.53;;;5.60;;
51499;SDS011;39101;53.478;6.158;2023-11-21T11:57:26;11.00;;;5.20;;
51499;SDS011;39101;53.478;6.158;2023-11-21T12:02:55;8.97;;;5.67;;
51499;SDS011;39101;53.478;6.158;2023-11-21T12:05:27;9.70;;;5.43;;
51499;SDS011;39101;53.478;6.158;2023-11-21T12:07:56;10.37;;;6.43;;
51499;SDS011;39101;53.478;6.158;2023-11-21T12:10:29;8.30;;;5.93;;
51499;SDS011;39101;53.478;6.158;2023-11-21T12:15:26;12.85;;;7.32;;
51499;SDS011;39101;53.478;6.158;2023-11-21T12:17:55;12.57;;;8.07;;
51499;SDS011;39101;53.478;6.158;2023-11-21T12:20:22;12.33;;;7.30;;
51499;SDS011;39101;53.478;6.158;2023-11-21T12:22:52;11.53;;;7.47;;
51499;SDS011;39101;53.478;6.158;2023-11-21T12:25:24;12.07;;;6.10;;
51499;SDS011;39101;53.478;6.158;2023-11-21T12:27:55;10.98;;;5.90;;
51499;SDS011;39101;53.478;6.158;2023-11-21T12:30:25;11.77;;;5.27;;
51499;SDS011;39101;53.478;6.158;2023-11-21T12:32:55;8.90;;;5.47;;
51499;SDS011;39101;53.478;6.158;2023-11-21T12:35:21;9.07;;;5.33;;
51499;SDS011;39101;53.478;6.158;2023-11-21T12:37:51;9.30;;;4.30;;
51499;SDS011;39101;53.478;6.158;2023-11-21T12:40:17;8.97;;;4.80;;
51499;SDS011;39101;53.478;6.158;2023-11-21T12:42:47;9.97;;;5.20;;
51499;SDS011;39101;53.478;6.158;2023-11-21T12:45:18;8.17;;;5.13;;
51499;SDS011;39101;53.478;6.158;2023-11-21T12:47:54;10.23;;;6.10;;
51499;SDS011;39101;53.478;6.158;2023-11-21T12:50:33;12.40;;;5.47;;
51499;SDS011;39101;53.478;6.158;2023-11-21T12:53:08;10.73;;;4.63;;
51499;SDS011;39101;53.478;6.158;2023-11-21T12:55:37;8.50;;;4.27;;
51499;SDS011;39101;53.478;6.158;2023-11-21T12:58:04;8.37;;;4.33;;
51499;SDS011;39101;53.478;6.158;2023-11-21T13:03:05;10.03;;;4.90;;
51499;SDS011;39101;53.478;6.158;2023-11-21T13:05:38;7.37;;;3.67;;
51499;SDS011;39101;53.478;6.158;2023-11-21T13:08:07;7.27;;;3.40;;
51499;SDS011;39101;53.478;6.158;2023-11-21T13:10:36;12.57;;;3.93;;
51499;SDS011;39101;53.478;6.158;2023-11-21T13:13:06;7.80;;;3.27;;
51499;SDS011;39101;53.478;6.158;2023-11-21T13:15:34;6.73;;;3.03;;
51499;SDS011;39101;53.478;6.158;2023-11-21T13:18:03;5.28;;;2.90;;
51499;SDS011;39101;53.478;6.158;2023-11-21T13:20:29;5.83;;;2.93;;
51499;SDS011;39101;53.478;6.158;2023-11-21T13:22:55;7.00;;;3.40;;
51499;SDS011;39101;53.478;6.158;2023-11-21T13:25:26;7.60;;;3.37;;
51499;SDS011;39101;53.478;6.158;2023-11-21T13:27:53;8.00;;;3.27;;
51499;SDS011;39101;53.478;6.158;2023-11-21T13:30:20;9.90;;;4.03;;
51499;SDS011;39101;53.478;6.158;2023-11-21T13:32:51;10.43;;;3.70;;
51499;SDS011;39101;53.478;6.158;2023-11-21T13:35:18;9.40;;;4.20;;
51499;SDS011;39101;53.478;6.158;2023-11-21T13:37:49;7.13;;;3.67;;
51499;SDS011;39101;53.478;6.158;2023-11-21T13:40:20;7.93;;;3.93;;
51499;SDS011;39101;53.478;6.158;2023-11-21T13:42:51;11.57;;;4.73;;
51499;SDS011;39101;53.478;6.158;2023-11-21T13:45:23;8.13;;;4.00;;
51499;SDS011;39101;53.478;6.158;2023-11-21T13:47:50;8.13;;;4.03;;
51499;SDS011;39101;53.478;6.158;2023-11-21T13:50:17;8.40;;;4.10;;
51499;SDS011;39101;53.478;6.158;2023-11-21T13:52:48;10.73;;;6.27;;
51499;SDS011;39101;53.478;6.158;2023-11-21T13:55:16;12.67;;;4.73;;
51499;SDS011;39101;53.478;6.158;2023-11-21T13:57:42;11.00;;;4.57;;
51499;SDS011;39101;53.478;6.158;2023-11-21T14:00:10;9.20;;;4.90;;
51499;SDS011;39101;53.478;6.158;2023-11-21T14:02:56;11.67;;;5.03;;
51499;SDS011;39101;53.478;6.158;2023-11-21T14:05:28;8.47;;;5.63;;
51499;SDS011;39101;53.478;6.158;2023-11-21T14:07:58;76.87;;;48.53;;
51499;SDS011;39101;53.478;6.158;2023-11-21T14:10:32;71.07;;;45.87;;
51499;SDS011;39101;53.478;6.158;2023-11-21T14:13:05;16.90;;;7.70;;
51499;SDS011;39101;53.478;6.158;2023-11-21T14:15:31;8.80;;;4.30;;
51499;SDS011;39101;53.478;6.158;2023-11-21T14:18:02;9.30;;;6.27;;
51499;SDS011;39101;53.478;6.158;2023-11-21T14:20:32;8.73;;;4.50;;
51499;SDS011;39101;53.478;6.158;2023-11-21T14:23:01;13.23;;;5.33;;
51499;SDS011;39101;53.478;6.158;2023-11-21T14:25:27;14.93;;;4.97;;
51499;SDS011;39101;53.478;6.158;2023-11-21T14:27:53;8.17;;;3.77;;
51499;SDS011;39101;53.478;6.158;2023-11-21T14:30:19;8.73;;;5.00;;
51499;SDS011;39101;53.478;6.158;2023-11-21T14:32:47;9.07;;;3.63;;
51499;SDS011;39101;53.478;6.158;2023-11-21T14:35:13;7.90;;;4.63;;
51499;SDS011;39101;53.478;6.158;2023-11-21T14:37:39;8.50;;;4.07;;
51499;SDS011;39101;53.478;6.158;2023-11-21T14:40:05;10.67;;;3.83;;
51499;SDS011;39101;53.478;6.158;2023-11-21T14:42:33;10.33;;;4.73;;
51499;SDS011;39101;53.478;6.158;2023-11-21T14:44:59;9.17;;;4.50;;
51499;SDS011;39101;53.478;6.158;2023-11-21T14:47:25;6.13;;;3.93;;
51499;SDS011;39101;53.478;6.158;2023-11-21T14:49:52;11.97;;;5.43;;
51499;SDS011;39101;53.478;6.158;2023-11-21T14:52:21;10.43;;;4.27;;
51499;SDS011;39101;53.478;6.158;2023-11-21T14:55:00;9.67;;;4.70;;
51499;SDS011;39101;53.478;6.158;2023-11-21T14:57:45;9.17;;;4.57;;
51499;SDS011;39101;53.478;6.158;2023-11-21T15:00:18;10.68;;;3.88;;
51499;SDS011;39101;53.478;6.158;2023-11-21T15:03:17;9.07;;;4.63;;
51499;SDS011;39101;53.478;6.158;2023-11-21T15:06:17;8.80;;;3.93;;
51499;SDS011;39101;53.478;6.158;2023-11-21T15:08:56;7.30;;;3.83;;